createdAt,value
2022-12-08T00:01:57.740Z,3.1
2022-12-08T00:11:57.520Z,3
2022-12-08T00:21:57.506Z,3
2022-12-08T00:31:57.534Z,3
2022-12-08T00:41:57.450Z,2.9
2022-12-08T00:51:57.479Z,2.9
2022-12-08T01:01:57.425Z,2.8
2022-12-08T01:11:57.412Z,2.8
2022-12-08T01:21:57.441Z,2.7
2022-12-08T01:31:57.385Z,2.7
2022-12-08T01:41:57.394Z,2.7
2022-12-08T01:51:57.411Z,2.7
2022-12-08T02:01:57.428Z,2.7
2022-12-08T02:11:57.371Z,2.6
2022-12-08T02:21:57.376Z,2.5
2022-12-08T02:31:57.341Z,2.4
2022-12-08T02:41:57.343Z,2.4
2022-12-08T02:51:57.357Z,2.4
2022-12-08T03:01:57.340Z,2.3
2022-12-08T03:11:57.308Z,2.3
2022-12-08T03:21:57.316Z,2.3
2022-12-08T03:31:57.280Z,2.3
2022-12-08T03:41:57.272Z,2.3
2022-12-08T03:51:57.363Z,2.3
2022-12-08T04:01:57.367Z,2.3
2022-12-08T04:11:57.238Z,2.2
2022-12-08T04:21:57.263Z,2.2
2022-12-08T04:31:57.326Z,2.2
2022-12-08T04:41:57.200Z,2.2
2022-12-08T04:51:57.237Z,2.1
2022-12-08T05:01:57.328Z,2.1
2022-12-08T05:11:57.210Z,2.1
2022-12-08T05:21:57.190Z,2
2022-12-08T05:31:57.269Z,1.9
2022-12-08T05:41:57.188Z,1.9
2022-12-08T05:51:57.187Z,1.8
2022-12-08T06:01:57.192Z,1.8
2022-12-08T06:11:57.168Z,1.7
2022-12-08T06:21:57.155Z,1.7
2022-12-08T06:31:57.289Z,1.6
2022-12-08T06:41:57.133Z,1.5
2022-12-08T06:51:57.112Z,1.4
2022-12-08T07:01:57.102Z,1.3
2022-12-08T07:11:57.120Z,1.1
2022-12-08T07:21:57.111Z,1
2022-12-08T07:31:57.054Z,0.8
2022-12-08T07:41:57.094Z,0.6
2022-12-08T07:51:57.083Z,0.7
2022-12-08T08:02:22.353Z,0.7
2022-12-08T08:21:57.047Z,0.7
2022-12-08T08:31:57.017Z,0.9
2022-12-08T08:41:57.024Z,1.3
2022-12-08T08:51:57.032Z,2
2022-12-08T09:01:57.157Z,2.4
2022-12-08T09:11:57.014Z,2.6
2022-12-08T09:21:56.984Z,2.9
2022-12-08T09:31:57.026Z,4
2022-12-08T09:41:56.968Z,6.2
2022-12-08T09:51:56.940Z,7
2022-12-08T10:01:57.018Z,8.7
2022-12-08T10:11:56.932Z,9.6
2022-12-08T10:21:56.877Z,9.4
2022-12-08T10:31:56.944Z,9.7
2022-12-08T10:41:56.901Z,9.4
2022-12-08T10:51:56.837Z,8.3
2022-12-08T11:01:56.974Z,7.7
2022-12-08T11:11:56.851Z,7.6
2022-12-08T11:21:56.794Z,7.7
2022-12-08T11:31:56.891Z,7.5
2022-12-08T11:41:56.793Z,7.2
2022-12-08T11:51:56.764Z,7.7
2022-12-08T12:01:56.826Z,7.7
2022-12-08T12:11:56.747Z,7.9
2022-12-08T12:21:56.723Z,7.9
2022-12-08T12:31:56.688Z,7.9
2022-12-08T12:41:56.721Z,7.7
2022-12-08T12:51:56.695Z,7.5
2022-12-08T13:01:56.647Z,7.8
2022-12-08T13:11:56.654Z,8.2
2022-12-08T13:21:56.631Z,7.7
2022-12-08T13:31:56.601Z,7.2
2022-12-08T13:41:56.629Z,6.9
2022-12-08T14:01:56.632Z,6.6
2022-12-08T14:11:56.558Z,6.4
2022-12-08T14:21:56.577Z,6.2
2022-12-08T14:31:56.516Z,6
2022-12-08T14:41:56.504Z,5.9
2022-12-08T14:51:56.548Z,5.7
2022-12-08T15:01:56.627Z,5.6
2022-12-08T15:11:56.467Z,5.4
2022-12-08T15:21:56.487Z,5.3
2022-12-08T15:31:56.552Z,5.1
2022-12-08T15:41:56.434Z,5
2022-12-08T15:52:04.984Z,4.8
2022-12-08T16:01:56.525Z,4.7
2022-12-08T16:12:06.383Z,4.6
2022-12-08T16:31:56.420Z,4.5
2022-12-08T16:41:56.359Z,4.5
2022-12-08T16:51:56.388Z,4.5
2022-12-08T17:01:56.345Z,4.4
2022-12-08T17:12:01.916Z,4.5
2022-12-08T17:21:56.348Z,4.4
2022-12-08T17:31:56.382Z,4.3
2022-12-08T17:41:56.297Z,4.2
2022-12-08T17:51:56.318Z,4
2022-12-08T18:01:56.432Z,4.1
2022-12-08T18:11:56.266Z,4.1
2022-12-08T18:21:56.293Z,4.1
2022-12-08T18:31:56.244Z,4
2022-12-08T18:41:56.252Z,4.1
2022-12-08T18:51:56.264Z,4.1
2022-12-08T19:01:56.277Z,4
2022-12-08T19:11:56.227Z,3.8
2022-12-08T19:21:56.217Z,3.8
2022-12-08T19:31:56.174Z,3.8
2022-12-08T19:41:56.200Z,3.8
2022-12-08T19:51:56.189Z,3.7
2022-12-08T20:01:56.204Z,3.6
2022-12-08T20:11:56.186Z,3.5
2022-12-08T20:21:56.141Z,3.6
2022-12-08T20:31:56.182Z,3.6
2022-12-08T20:41:56.129Z,3.7
2022-12-08T20:51:56.162Z,3.7
2022-12-08T21:01:56.341Z,3.8
2022-12-08T21:11:56.119Z,3.7
2022-12-08T21:21:56.102Z,3.5
2022-12-08T21:31:56.081Z,3.4
2022-12-08T21:41:56.052Z,3.2
2022-12-08T21:51:56.039Z,3.1
2022-12-08T22:01:56.374Z,3
2022-12-08T22:11:56.104Z,2.9
2022-12-08T22:21:55.989Z,2.9
2022-12-08T22:31:56.017Z,2.8
2022-12-08T22:41:55.960Z,2.8
2022-12-08T22:51:55.963Z,2.8
2022-12-08T23:01:55.950Z,2.7
2022-12-08T23:11:55.976Z,2.7
2022-12-08T23:21:55.916Z,2.7
2022-12-08T23:31:56.060Z,2.7
2022-12-08T23:41:55.993Z,2.7
2022-12-08T23:51:55.902Z,2.7
